createdAt,value
2023-01-09T00:00:50.854Z,-0.39
2023-01-09T00:02:24.415Z,-0.39
2023-01-09T00:03:57.662Z,-0.40
2023-01-09T00:05:30.857Z,-0.41
2023-01-09T00:07:05.459Z,-0.44
2023-01-09T00:08:38.802Z,-0.55
2023-01-09T00:10:13.683Z,-0.58
2023-01-09T00:11:47.061Z,-0.58
2023-01-09T00:13:20.197Z,-0.59
2023-01-09T00:14:53.428Z,-0.60
2023-01-09T00:16:27.073Z,-0.69
2023-01-09T00:18:00.517Z,-0.68
2023-01-09T00:19:33.687Z,-0.65
2023-01-09T00:21:09.078Z,-0.61
2023-01-09T00:22:44.093Z,-0.56
2023-01-09T00:24:17.504Z,-0.53
2023-01-09T00:25:50.688Z,-0.51
2023-01-09T00:27:24.150Z,-0.50
2023-01-09T00:28:57.301Z,-0.51
2023-01-09T00:30:30.879Z,-0.46
2023-01-09T00:32:04.076Z,-0.47
2023-01-09T00:33:41.661Z,-0.42
2023-01-09T00:35:18.804Z,-0.42
2023-01-09T00:36:55.244Z,-0.41
2023-01-09T00:38:29.866Z,-0.40
2023-01-09T00:40:03.192Z,-0.44
2023-01-09T00:41:39.206Z,-0.47
2023-01-09T00:43:12.395Z,-0.45
2023-01-09T00:44:50.704Z,-0.47
2023-01-09T00:46:28.243Z,-0.56
2023-01-09T00:48:05.943Z,-0.67
2023-01-09T00:49:39.368Z,-0.74
2023-01-09T00:51:12.594Z,-0.80
2023-01-09T00:52:48.149Z,-0.83
2023-01-09T00:54:23.614Z,-0.85
2023-01-09T00:55:58.990Z,-0.88
2023-01-09T00:57:32.501Z,-0.89
2023-01-09T00:59:06.421Z,-0.89
2023-01-09T01:00:38.633Z,-0.91
2023-01-09T01:02:12.073Z,-0.93
2023-01-09T01:03:45.373Z,-0.94
2023-01-09T01:05:36.858Z,-1.02
2023-01-09T01:07:27.435Z,-1.07
2023-01-09T01:09:00.581Z,-1.13
2023-01-09T01:10:37.038Z,-1.23
2023-01-09T01:12:10.435Z,-1.20
2023-01-09T01:13:44.025Z,-1.24
2023-01-09T01:15:18.454Z,-1.28
2023-01-09T01:16:50.665Z,-1.23
2023-01-09T01:18:24.343Z,-1.24
2023-01-09T01:19:56.456Z,-1.26
2023-01-09T01:21:29.913Z,-1.28
2023-01-09T01:23:03.096Z,-1.31
2023-01-09T01:24:36.429Z,-1.29
2023-01-09T01:26:12.855Z,-1.27
2023-01-09T01:27:46.773Z,-1.31
2023-01-09T01:29:20.125Z,-1.28
2023-01-09T01:30:53.701Z,-1.29
2023-01-09T01:32:25.884Z,-1.31
2023-01-09T01:33:59.262Z,-1.30
2023-01-09T01:35:32.566Z,-1.29
2023-01-09T01:37:05.708Z,-1.30
2023-01-09T01:38:39.015Z,-1.30
2023-01-09T01:40:13.531Z,-1.32
2023-01-09T01:41:47.471Z,-1.42
2023-01-09T01:43:21.218Z,-1.51
2023-01-09T01:45:04.069Z,-1.58
2023-01-09T01:46:37.313Z,-1.56
2023-01-09T01:48:12.548Z,-1.53
2023-01-09T01:49:45.543Z,-1.51
2023-01-09T01:51:22.563Z,-1.46
2023-01-09T01:53:01.340Z,-1.44
2023-01-09T01:54:34.949Z,-1.45
2023-01-09T01:56:13.688Z,-1.53
2023-01-09T01:57:50.428Z,-1.61
2023-01-09T01:59:27.663Z,-1.63
2023-01-09T02:01:01.332Z,-1.72
2023-01-09T02:02:33.957Z,-1.60
2023-01-09T02:04:11.365Z,-1.57
2023-01-09T02:05:44.440Z,-1.54
2023-01-09T02:07:17.589Z,-1.57
2023-01-09T02:08:51.958Z,-1.53
2023-01-09T02:10:25.853Z,-1.56
2023-01-09T02:12:01.014Z,-1.58
2023-01-09T02:13:38.826Z,-1.57
2023-01-09T02:15:14.964Z,-1.53
2023-01-09T02:17:08.449Z,-1.55
2023-01-09T02:18:48.358Z,-1.52
2023-01-09T02:20:38.061Z,-1.48
2023-01-09T02:22:20.664Z,-1.43
2023-01-09T02:24:29.821Z,-1.56
2023-01-09T02:26:37.100Z,-1.58
2023-01-09T02:28:37.117Z,-1.63
2023-01-09T02:30:40.067Z,-1.65
2023-01-09T02:32:24.671Z,-1.72
2023-01-09T02:34:08.643Z,-1.77
2023-01-09T02:35:58.061Z,-1.79
2023-01-09T02:37:42.088Z,-1.78
2023-01-09T02:39:25.889Z,-1.79
2023-01-09T02:41:05.656Z,-1.84
2023-01-09T02:42:43.345Z,-1.79
2023-01-09T02:44:18.353Z,-1.81
2023-01-09T02:45:52.937Z,-1.79
2023-01-09T02:47:41.659Z,-1.80
2023-01-09T02:49:17.507Z,-1.80
2023-01-09T02:51:02.510Z,-1.84
2023-01-09T02:52:47.906Z,-1.84
2023-01-09T02:54:34.358Z,-1.81
2023-01-09T02:56:21.851Z,-1.77
2023-01-09T02:58:05.140Z,-1.71
2023-01-09T02:59:53.910Z,-1.65
2023-01-09T03:01:38.847Z,-1.61
2023-01-09T03:03:22.108Z,-1.60
2023-01-09T03:05:00.682Z,-1.60
2023-01-09T03:06:46.400Z,-1.64
2023-01-09T03:08:22.890Z,-1.72
2023-01-09T03:10:09.991Z,-1.78
2023-01-09T03:11:53.954Z,-1.79
2023-01-09T03:13:32.621Z,-1.75
2023-01-09T03:15:08.228Z,-1.69
2023-01-09T03:16:47.056Z,-1.65
2023-01-09T03:18:24.364Z,-1.59
2023-01-09T03:19:58.858Z,-1.48
2023-01-09T03:21:33.751Z,-1.40
2023-01-09T03:23:07.488Z,-1.36
2023-01-09T03:24:40.641Z,-1.37
2023-01-09T03:26:13.922Z,-1.34
2023-01-09T03:27:47.013Z,-1.33
2023-01-09T03:29:20.300Z,-1.40
2023-01-09T03:30:53.505Z,-1.50
2023-01-09T03:32:28.025Z,-1.55
2023-01-09T03:34:01.158Z,-1.60
2023-01-09T03:35:34.498Z,-1.64
2023-01-09T03:37:07.600Z,-1.63
2023-01-09T03:38:40.856Z,-1.63
2023-01-09T03:40:14.107Z,-1.62
2023-01-09T03:41:47.634Z,-1.60
2023-01-09T03:43:20.835Z,-1.64
2023-01-09T03:44:53.931Z,-1.61
2023-01-09T03:46:27.095Z,-1.60
2023-01-09T03:48:01.047Z,-1.55
2023-01-09T03:49:34.167Z,-1.51
2023-01-09T03:51:07.713Z,-1.43
2023-01-09T03:52:41.455Z,-1.40
2023-01-09T03:54:14.818Z,-1.46
2023-01-09T03:55:49.423Z,-1.44
2023-01-09T03:57:25.735Z,-1.45
2023-01-09T03:59:01.031Z,-1.54
2023-01-09T04:00:34.590Z,-1.62
2023-01-09T04:02:08.213Z,-1.63
2023-01-09T04:03:43.430Z,-1.64
2023-01-09T04:05:20.971Z,-1.66
2023-01-09T04:06:54.487Z,-1.66
2023-01-09T04:08:28.190Z,-1.68
2023-01-09T04:10:01.809Z,-1.64
2023-01-09T04:11:34.978Z,-1.68
2023-01-09T04:13:08.118Z,-1.65
2023-01-09T04:14:41.315Z,-1.58
2023-01-09T04:16:14.835Z,-1.53
2023-01-09T04:17:48.173Z,-1.44
2023-01-09T04:19:23.409Z,-1.36
2023-01-09T04:20:56.963Z,-1.31
2023-01-09T04:22:31.500Z,-1.32
2023-01-09T04:24:05.005Z,-1.33
2023-01-09T04:25:38.284Z,-1.33
2023-01-09T04:27:12.195Z,-1.30
2023-01-09T04:28:46.247Z,-1.30
2023-01-09T04:30:19.503Z,-1.25
2023-01-09T04:31:56.913Z,-1.22
2023-01-09T04:33:30.010Z,-1.17
2023-01-09T04:35:04.488Z,-1.13
2023-01-09T04:36:37.742Z,-1.08
2023-01-09T04:38:11.454Z,-1.09
2023-01-09T04:39:45.204Z,-1.10
2023-01-09T04:41:32.195Z,-1.06
2023-01-09T04:43:05.311Z,-1.01
2023-01-09T04:44:41.895Z,-0.95
2023-01-09T04:46:17.869Z,-0.89
2023-01-09T04:47:53.753Z,-0.89
2023-01-09T04:49:27.465Z,-0.85
2023-01-09T04:51:02.477Z,-0.84
2023-01-09T04:52:38.163Z,-0.87
2023-01-09T04:54:12.592Z,-0.79
2023-01-09T04:55:45.676Z,-0.76
2023-01-09T04:57:19.404Z,-0.73
2023-01-09T04:58:52.614Z,-0.77
2023-01-09T05:00:25.951Z,-0.74
2023-01-09T05:01:59.596Z,-0.74
2023-01-09T05:03:33.244Z,-0.70
2023-01-09T05:05:09.723Z,-0.68
2023-01-09T05:06:45.931Z,-0.64
2023-01-09T05:08:19.049Z,-0.63
2023-01-09T05:09:52.530Z,-0.61
2023-01-09T05:11:25.770Z,-0.58
2023-01-09T05:12:58.952Z,-0.61
2023-01-09T05:14:32.103Z,-0.61
2023-01-09T05:16:06.014Z,-0.72
2023-01-09T05:17:39.277Z,-0.75
2023-01-09T05:19:12.752Z,-0.72
2023-01-09T05:20:45.946Z,-0.76
2023-01-09T05:22:20.782Z,-0.73
2023-01-09T05:23:52.984Z,-0.72
2023-01-09T05:25:26.476Z,-0.71
2023-01-09T05:26:59.563Z,-0.70
2023-01-09T05:28:33.579Z,-0.67
2023-01-09T05:30:07.514Z,-0.65
2023-01-09T05:31:39.938Z,-0.64
2023-01-09T05:33:13.081Z,-0.67
2023-01-09T05:34:46.374Z,-0.71
2023-01-09T05:36:19.610Z,-0.73
2023-01-09T05:37:54.252Z,-0.69
2023-01-09T05:39:27.470Z,-0.66
2023-01-09T05:41:00.873Z,-0.61
2023-01-09T05:42:34.066Z,-0.64
2023-01-09T05:44:07.356Z,-0.64
2023-01-09T05:45:40.566Z,-0.65
2023-01-09T05:47:14.140Z,-0.68
2023-01-09T05:48:47.333Z,-0.68
2023-01-09T05:50:20.509Z,-0.66
2023-01-09T05:51:53.676Z,-0.67
2023-01-09T05:53:28.457Z,-0.65
2023-01-09T05:55:01.620Z,-0.62
2023-01-09T05:56:35.055Z,-0.59
2023-01-09T05:58:08.222Z,-0.58
2023-01-09T05:59:41.767Z,-0.55
2023-01-09T06:01:15.045Z,-0.52
2023-01-09T06:02:48.386Z,-0.55
2023-01-09T06:04:21.841Z,-0.58
2023-01-09T06:05:55.230Z,-0.49
2023-01-09T06:07:28.391Z,-0.42
2023-01-09T06:09:03.642Z,-0.35
2023-01-09T06:10:36.810Z,-0.33
2023-01-09T06:12:10.411Z,-0.34
2023-01-09T06:13:43.598Z,-0.36
2023-01-09T06:15:17.108Z,-0.45
2023-01-09T06:16:50.419Z,-0.45
2023-01-09T06:18:23.881Z,-0.49
2023-01-09T06:19:56.996Z,-0.51
2023-01-09T06:21:30.174Z,-0.46
2023-01-09T06:23:03.365Z,-0.58
2023-01-09T06:24:37.967Z,-0.59
2023-01-09T06:26:11.145Z,-0.55
2023-01-09T06:27:44.217Z,-0.52
2023-01-09T06:29:17.451Z,-0.49
2023-01-09T06:30:52.334Z,-0.41
2023-01-09T06:32:25.505Z,-0.49
2023-01-09T06:33:58.648Z,-0.70
2023-01-09T06:35:31.833Z,-0.65
2023-01-09T06:37:04.514Z,-0.59
2023-01-09T06:38:37.614Z,-0.66
2023-01-09T06:40:13.313Z,-0.60
2023-01-09T06:41:48.507Z,-0.62
2023-01-09T06:43:22.169Z,-0.69
2023-01-09T06:44:55.313Z,-0.69
2023-01-09T06:46:28.509Z,-0.73
2023-01-09T06:48:01.760Z,-0.72
2023-01-09T06:49:35.137Z,-0.68
2023-01-09T06:51:08.383Z,-0.67
2023-01-09T06:52:41.556Z,-0.69
2023-01-09T06:54:14.705Z,-0.68
2023-01-09T06:55:49.552Z,-0.60
2023-01-09T06:57:22.651Z,-0.55
2023-01-09T06:58:55.933Z,-0.56
2023-01-09T07:00:31.508Z,-0.54
2023-01-09T07:02:05.310Z,-0.49
2023-01-09T07:03:38.566Z,-0.52
2023-01-09T07:05:12.128Z,-0.53
2023-01-09T07:06:48.316Z,-0.60
2023-01-09T07:08:21.920Z,-0.65
2023-01-09T07:09:55.043Z,-0.66
2023-01-09T07:11:29.521Z,-0.60
2023-01-09T07:13:02.704Z,-0.58
2023-01-09T07:14:36.229Z,-0.61
2023-01-09T07:16:09.830Z,-0.55
2023-01-09T07:17:42.978Z,-0.49
2023-01-09T07:19:16.187Z,-0.46
2023-01-09T07:20:49.784Z,-0.46
2023-01-09T07:22:22.899Z,-0.48
2023-01-09T07:23:56.071Z,-0.46
2023-01-09T07:25:29.276Z,-0.53
2023-01-09T07:27:04.508Z,-0.37
2023-01-09T07:28:37.621Z,-0.37
2023-01-09T07:30:12.189Z,-0.43
2023-01-09T07:31:45.306Z,-0.41
2023-01-09T07:33:18.542Z,-0.42
2023-01-09T07:34:51.782Z,-0.45
2023-01-09T07:36:25.111Z,-0.44
2023-01-09T07:37:58.245Z,-0.46
2023-01-09T07:39:31.393Z,-0.46
2023-01-09T07:41:04.598Z,-0.39
2023-01-09T07:42:39.370Z,-0.41
2023-01-09T07:44:12.530Z,-0.38
2023-01-09T07:45:47.679Z,-0.32
2023-01-09T07:47:20.798Z,-0.32
2023-01-09T07:48:54.022Z,-0.27
2023-01-09T07:50:27.215Z,-0.23
2023-01-09T07:52:00.661Z,-0.21
2023-01-09T07:53:33.734Z,-0.06
2023-01-09T07:55:07.972Z,-0.06
2023-01-09T07:56:41.471Z,-0.05
2023-01-09T07:58:16.213Z,-0.02
2023-01-09T07:59:49.287Z,0.03
2023-01-09T08:01:22.777Z,-0.01
2023-01-09T08:02:56.217Z,0.08
2023-01-09T08:04:29.602Z,-0.04
2023-01-09T08:06:02.855Z,0.00
2023-01-09T08:07:36.224Z,0.04
2023-01-09T08:09:09.667Z,0.08
2023-01-09T08:10:43.227Z,0.19
2023-01-09T08:12:16.457Z,0.29
2023-01-09T08:13:51.128Z,0.41
2023-01-09T08:15:24.235Z,0.40
2023-01-09T08:16:57.953Z,0.51
2023-01-09T08:18:31.139Z,0.60
2023-01-09T08:20:04.854Z,0.62
2023-01-09T08:21:37.929Z,0.52
2023-01-09T08:23:11.412Z,0.58
2023-01-09T08:24:44.553Z,0.71
2023-01-09T08:26:18.548Z,0.75
2023-01-09T08:27:51.717Z,0.65
2023-01-09T08:29:26.512Z,0.61
2023-01-09T08:30:59.837Z,0.51
2023-01-09T08:32:33.301Z,0.55
2023-01-09T08:34:06.385Z,0.55
2023-01-09T08:35:39.850Z,0.48
2023-01-09T08:37:13.055Z,0.55
2023-01-09T08:38:46.200Z,0.60
2023-01-09T08:40:19.738Z,0.62
2023-01-09T08:42:10.805Z,0.63
2023-01-09T08:44:01.388Z,0.74
2023-01-09T08:45:53.546Z,0.80
2023-01-09T08:47:29.081Z,0.99
2023-01-09T08:49:02.275Z,1.13
2023-01-09T08:50:35.582Z,1.26
2023-01-09T08:52:08.937Z,1.33
2023-01-09T08:53:42.466Z,1.32
2023-01-09T08:55:15.800Z,1.42
2023-01-09T08:56:49.210Z,1.36
2023-01-09T08:58:22.372Z,1.37
2023-01-09T08:59:55.621Z,1.20
2023-01-09T09:01:30.263Z,1.32
2023-01-09T09:03:03.765Z,1.33
2023-01-09T09:04:36.919Z,1.32
2023-01-09T09:06:10.480Z,1.43
2023-01-09T09:07:43.592Z,1.57
2023-01-09T09:09:17.072Z,1.68
2023-01-09T09:10:50.202Z,1.86
2023-01-09T09:12:24.328Z,1.98
2023-01-09T09:13:57.714Z,2.15
2023-01-09T09:15:30.023Z,2.27
2023-01-09T09:17:04.661Z,2.35
2023-01-09T09:18:37.948Z,2.44
2023-01-09T09:20:12.598Z,2.61
2023-01-09T09:21:46.118Z,2.69
2023-01-09T09:23:19.346Z,2.71
2023-01-09T09:24:52.607Z,2.89
2023-01-09T09:26:25.893Z,2.96
2023-01-09T09:28:01.254Z,3.29
2023-01-09T09:29:34.474Z,3.43
2023-01-09T09:31:08.790Z,3.37
2023-01-09T09:32:43.836Z,3.33
2023-01-09T09:34:17.273Z,3.43
2023-01-09T09:35:51.871Z,3.52
2023-01-09T09:37:25.436Z,3.49
2023-01-09T09:38:58.579Z,3.41
2023-01-09T09:40:57.932Z,3.55
2023-01-09T09:43:30.359Z,3.60
2023-01-09T09:45:14.718Z,3.57
2023-01-09T09:46:57.415Z,3.49
2023-01-09T09:48:37.645Z,3.49
2023-01-09T09:50:27.657Z,3.42
2023-01-09T09:52:09.568Z,3.48
2023-01-09T09:53:52.963Z,3.48
2023-01-09T09:55:31.026Z,3.41
2023-01-09T09:57:06.549Z,3.22
2023-01-09T09:58:41.937Z,3.22
2023-01-09T10:00:20.349Z,3.28
2023-01-09T10:01:57.601Z,3.29
2023-01-09T10:03:38.532Z,3.33
2023-01-09T10:05:18.226Z,3.25
2023-01-09T10:06:53.883Z,3.34
2023-01-09T10:08:35.642Z,3.45
2023-01-09T10:10:15.889Z,3.58
2023-01-09T10:11:54.096Z,3.72
2023-01-09T10:13:45.265Z,3.81
2023-01-09T10:15:25.278Z,3.90
2023-01-09T10:17:13.163Z,3.94
2023-01-09T10:18:59.980Z,4.00
2023-01-09T10:20:53.871Z,4.10
2023-01-09T10:22:39.702Z,4.22
2023-01-09T10:24:33.919Z,4.31
2023-01-09T10:26:13.175Z,4.41
2023-01-09T10:28:01.868Z,4.49
2023-01-09T10:29:45.794Z,4.55
2023-01-09T10:31:28.620Z,4.66
2023-01-09T10:33:14.881Z,4.81
2023-01-09T10:35:03.555Z,4.98
2023-01-09T10:37:01.327Z,5.10
2023-01-09T10:38:36.997Z,5.18
2023-01-09T10:40:20.775Z,5.26
2023-01-09T10:42:01.801Z,5.35
2023-01-09T10:43:42.715Z,5.40
2023-01-09T10:45:21.612Z,5.51
2023-01-09T10:46:56.600Z,5.61
2023-01-09T10:48:33.749Z,5.71
2023-01-09T10:50:21.111Z,5.82
2023-01-09T10:52:05.530Z,5.96
2023-01-09T10:53:43.116Z,6.08
2023-01-09T10:55:20.766Z,6.18
2023-01-09T10:56:57.393Z,6.31
2023-01-09T10:58:30.908Z,6.41
2023-01-09T11:00:05.744Z,6.50
2023-01-09T11:01:43.401Z,6.67
2023-01-09T11:03:18.430Z,6.75
2023-01-09T11:04:52.044Z,6.82
2023-01-09T11:06:33.647Z,6.91
2023-01-09T11:08:18.352Z,7.03
2023-01-09T11:09:59.783Z,7.11
2023-01-09T11:11:35.158Z,7.17
2023-01-09T11:13:16.726Z,7.24
2023-01-09T11:14:49.911Z,7.33
2023-01-09T11:16:24.392Z,7.39
2023-01-09T11:18:20.204Z,7.47
2023-01-09T11:20:04.755Z,7.54
2023-01-09T11:21:42.052Z,7.59
2023-01-09T11:23:30.998Z,7.68
2023-01-09T11:25:06.573Z,7.69
2023-01-09T11:26:39.727Z,7.76
2023-01-09T11:28:13.131Z,7.80
2023-01-09T11:29:46.268Z,7.84
2023-01-09T11:31:24.583Z,7.87
2023-01-09T11:32:59.075Z,7.92
2023-01-09T11:34:34.700Z,7.96
2023-01-09T11:36:11.156Z,8.02
2023-01-09T11:37:47.189Z,8.09
2023-01-09T11:39:25.032Z,8.15
2023-01-09T11:41:00.789Z,8.23
2023-01-09T11:42:52.236Z,8.29
2023-01-09T11:44:26.851Z,8.37
2023-01-09T11:46:03.460Z,8.46
2023-01-09T11:47:40.897Z,8.59
2023-01-09T11:49:25.555Z,8.70
2023-01-09T11:51:01.277Z,8.82
2023-01-09T11:52:34.893Z,8.89
2023-01-09T11:54:18.998Z,8.98
2023-01-09T11:55:59.524Z,9.07
2023-01-09T11:57:34.649Z,9.16
2023-01-09T11:59:12.431Z,9.24
2023-01-09T12:00:53.897Z,9.32
2023-01-09T12:02:48.108Z,9.39
2023-01-09T12:04:25.846Z,9.49
2023-01-09T12:06:05.107Z,9.57
2023-01-09T12:07:59.246Z,9.67
2023-01-09T12:09:42.719Z,9.71
2023-01-09T12:11:31.241Z,9.72
2023-01-09T12:13:14.730Z,9.77
2023-01-09T12:15:01.385Z,9.81
2023-01-09T12:16:40.855Z,9.89
2023-01-09T12:18:36.580Z,9.96
2023-01-09T12:20:33.929Z,10.05
2023-01-09T12:22:16.154Z,10.11
2023-01-09T12:24:01.596Z,10.16
2023-01-09T12:25:48.693Z,10.25
2023-01-09T12:27:34.527Z,10.29
2023-01-09T12:29:28.196Z,10.32
2023-01-09T12:31:17.022Z,10.37
2023-01-09T12:33:05.179Z,10.44
2023-01-09T12:34:53.882Z,10.48
2023-01-09T12:36:34.267Z,10.53
2023-01-09T12:38:22.860Z,10.60
2023-01-09T12:40:04.477Z,10.64
2023-01-09T12:42:16.868Z,10.68
2023-01-09T12:44:02.748Z,10.72
2023-01-09T12:45:44.653Z,10.74
2023-01-09T12:47:46.275Z,10.76
2023-01-09T12:49:34.104Z,10.86
2023-01-09T12:51:21.921Z,10.89
2023-01-09T12:53:07.023Z,10.91
2023-01-09T12:54:47.044Z,10.91
2023-01-09T12:56:26.551Z,10.94
2023-01-09T12:58:08.719Z,10.97
2023-01-09T12:59:46.758Z,10.95
2023-01-09T13:01:28.078Z,11.00
2023-01-09T13:03:12.448Z,11.02
2023-01-09T13:04:54.805Z,11.05
2023-01-09T13:06:29.915Z,11.07
2023-01-09T13:08:06.493Z,11.11
2023-01-09T13:09:44.039Z,11.13
2023-01-09T13:11:24.171Z,11.14
2023-01-09T13:13:06.516Z,11.15
2023-01-09T13:14:50.289Z,11.17
2023-01-09T13:16:27.398Z,11.15
2023-01-09T13:18:05.610Z,11.20
2023-01-09T13:19:40.759Z,11.18
2023-01-09T13:21:15.111Z,11.15
2023-01-09T13:22:52.446Z,11.14
2023-01-09T13:24:32.131Z,11.12
2023-01-09T13:26:08.267Z,11.14
2023-01-09T13:27:44.514Z,11.13
2023-01-09T13:29:24.151Z,11.13
2023-01-09T13:31:20.729Z,11.13
2023-01-09T13:33:08.438Z,11.11
2023-01-09T13:34:42.909Z,11.10
2023-01-09T13:36:25.700Z,11.07
2023-01-09T13:37:58.994Z,11.12
2023-01-09T13:39:35.253Z,11.12
2023-01-09T13:41:32.350Z,11.14
2023-01-09T13:43:09.729Z,11.18
2023-01-09T13:44:45.650Z,11.24
2023-01-09T13:46:18.897Z,11.23
2023-01-09T13:48:34.012Z,11.26
2023-01-09T13:50:25.303Z,11.29
2023-01-09T13:52:01.900Z,11.27
2023-01-09T13:53:48.304Z,11.27
2023-01-09T13:55:37.146Z,11.28
2023-01-09T13:57:26.578Z,11.27
2023-01-09T13:59:03.252Z,11.28
2023-01-09T14:00:52.911Z,11.24
2023-01-09T14:02:57.784Z,11.23
2023-01-09T14:04:47.647Z,11.22
2023-01-09T14:06:22.436Z,11.18
2023-01-09T14:08:05.002Z,11.16
2023-01-09T14:09:38.789Z,11.11
2023-01-09T14:11:23.748Z,11.05
2023-01-09T14:12:59.284Z,11.01
2023-01-09T14:14:35.145Z,10.95
2023-01-09T14:16:18.344Z,10.88
2023-01-09T14:18:01.071Z,10.83
2023-01-09T14:19:37.332Z,10.80
2023-01-09T14:21:13.333Z,10.77
2023-01-09T14:22:56.285Z,10.75
2023-01-09T14:24:44.285Z,10.70
2023-01-09T14:26:19.672Z,10.64
2023-01-09T14:28:08.504Z,10.61
2023-01-09T14:29:47.684Z,10.57
2023-01-09T14:31:40.121Z,10.50
2023-01-09T14:33:30.002Z,10.43
2023-01-09T14:35:12.082Z,10.38
2023-01-09T14:36:45.825Z,10.28
2023-01-09T14:38:28.815Z,10.19
2023-01-09T14:40:03.020Z,10.13
2023-01-09T14:41:56.627Z,10.04
2023-01-09T14:43:54.934Z,9.97
2023-01-09T14:45:28.791Z,9.91
2023-01-09T14:47:12.913Z,9.84
2023-01-09T14:48:58.407Z,9.73
2023-01-09T14:50:35.751Z,9.63
2023-01-09T14:52:16.810Z,9.51
2023-01-09T14:53:53.255Z,9.42
2023-01-09T14:55:32.153Z,9.38
2023-01-09T14:57:24.837Z,9.35
2023-01-09T14:59:11.579Z,9.26
2023-01-09T15:00:50.495Z,9.30
2023-01-09T15:02:28.182Z,9.26
2023-01-09T15:04:04.011Z,9.22
2023-01-09T15:05:37.989Z,9.15
2023-01-09T15:07:22.858Z,9.12
2023-01-09T15:08:59.274Z,9.06
2023-01-09T15:10:34.277Z,8.98
2023-01-09T15:12:10.540Z,8.92
2023-01-09T15:13:47.936Z,8.82
2023-01-09T15:15:23.298Z,8.77
2023-01-09T15:16:56.594Z,8.72
2023-01-09T15:18:35.630Z,8.68
2023-01-09T15:20:18.778Z,8.64
2023-01-09T15:22:00.684Z,8.58
2023-01-09T15:23:34.152Z,8.56
2023-01-09T15:25:34.173Z,8.49
2023-01-09T15:27:19.544Z,8.47
2023-01-09T15:28:53.810Z,8.43
2023-01-09T15:30:34.241Z,8.36
2023-01-09T15:32:11.314Z,8.43
2023-01-09T15:33:48.086Z,8.44
2023-01-09T15:35:21.590Z,8.41
2023-01-09T15:36:58.037Z,8.38
2023-01-09T15:38:36.154Z,8.31
2023-01-09T15:40:22.486Z,8.24
2023-01-09T15:42:14.610Z,8.16
2023-01-09T15:43:47.938Z,8.06
2023-01-09T15:45:26.651Z,7.95
2023-01-09T15:47:01.987Z,7.84
2023-01-09T15:48:36.197Z,7.74
2023-01-09T15:50:17.903Z,7.64
2023-01-09T15:51:52.484Z,7.55
2023-01-09T15:53:28.262Z,7.49
2023-01-09T15:55:01.727Z,7.44
2023-01-09T15:56:35.508Z,7.39
2023-01-09T15:58:28.197Z,7.25
2023-01-09T16:00:39.419Z,7.09
2023-01-09T16:02:33.892Z,7.00
2023-01-09T16:04:10.237Z,6.89
2023-01-09T16:05:48.162Z,6.80
2023-01-09T16:07:23.232Z,6.72
2023-01-09T16:09:01.393Z,6.68
2023-01-09T16:10:37.283Z,6.63
2023-01-09T16:12:21.224Z,6.56
2023-01-09T16:13:56.708Z,6.49
2023-01-09T16:15:33.624Z,6.38
2023-01-09T16:17:09.881Z,6.32
2023-01-09T16:18:52.457Z,6.20
2023-01-09T16:20:27.202Z,6.12
2023-01-09T16:22:04.338Z,6.03
2023-01-09T16:23:38.276Z,5.96
2023-01-09T16:25:29.821Z,5.91
2023-01-09T16:27:27.140Z,5.87
2023-01-09T16:29:31.158Z,5.83
2023-01-09T16:31:08.947Z,5.74
2023-01-09T16:32:51.536Z,5.71
2023-01-09T16:34:25.761Z,5.64
2023-01-09T16:36:00.039Z,5.55
2023-01-09T16:37:36.151Z,5.49
2023-01-09T16:39:15.209Z,5.42
2023-01-09T16:41:22.990Z,5.37
2023-01-09T16:43:04.567Z,5.28
2023-01-09T16:44:38.179Z,5.21
2023-01-09T16:46:12.253Z,5.19
2023-01-09T16:47:47.300Z,5.19
2023-01-09T16:49:23.735Z,5.18
2023-01-09T16:50:57.692Z,5.12
2023-01-09T16:52:30.923Z,5.09
2023-01-09T16:54:05.800Z,5.07
2023-01-09T16:55:39.627Z,5.04
2023-01-09T16:57:20.314Z,5.05
2023-01-09T16:58:54.827Z,5.03
2023-01-09T17:00:28.701Z,5.05
2023-01-09T17:02:01.913Z,5.05
2023-01-09T17:03:35.396Z,5.04
2023-01-09T17:05:10.337Z,5.05
2023-01-09T17:06:46.614Z,5.05
2023-01-09T17:08:26.224Z,5.06
2023-01-09T17:10:01.252Z,5.07
2023-01-09T17:11:39.444Z,5.05
2023-01-09T17:13:12.734Z,5.00
2023-01-09T17:14:45.835Z,4.97
2023-01-09T17:16:19.695Z,4.98
2023-01-09T17:17:56.251Z,4.94
2023-01-09T17:19:31.896Z,4.91
2023-01-09T17:21:08.333Z,4.92
2023-01-09T17:22:41.450Z,4.85
2023-01-09T17:24:34.746Z,4.85
2023-01-09T17:26:34.639Z,4.86
2023-01-09T17:28:25.193Z,4.81
2023-01-09T17:29:59.447Z,4.69
2023-01-09T17:31:33.957Z,4.59
2023-01-09T17:33:07.599Z,4.54
2023-01-09T17:34:40.893Z,4.53
2023-01-09T17:36:22.577Z,4.53
2023-01-09T17:37:55.911Z,4.51
2023-01-09T17:39:29.207Z,4.56
2023-01-09T17:41:05.440Z,4.60
2023-01-09T17:42:40.562Z,4.60
2023-01-09T17:44:14.552Z,4.58
2023-01-09T17:45:48.113Z,4.48
2023-01-09T17:47:21.363Z,4.45
2023-01-09T17:48:54.897Z,4.44
2023-01-09T17:50:33.030Z,4.48
2023-01-09T17:52:07.057Z,4.49
2023-01-09T17:53:42.131Z,4.54
2023-01-09T17:55:20.244Z,4.55
2023-01-09T17:56:54.558Z,4.53
2023-01-09T17:58:31.131Z,4.51
2023-01-09T18:00:06.856Z,4.50
2023-01-09T18:01:41.372Z,4.45
2023-01-09T18:03:14.903Z,4.41
2023-01-09T18:04:48.563Z,4.43
2023-01-09T18:06:23.252Z,4.37
2023-01-09T18:07:57.043Z,4.36
2023-01-09T18:09:30.445Z,4.32
2023-01-09T18:11:04.726Z,4.14
2023-01-09T18:12:38.425Z,4.01
2023-01-09T18:14:14.088Z,3.96
2023-01-09T18:15:48.333Z,3.92
2023-01-09T18:17:21.694Z,3.89
2023-01-09T18:18:56.194Z,3.75
2023-01-09T18:20:29.775Z,3.68
2023-01-09T18:22:04.038Z,3.60
2023-01-09T18:23:38.064Z,3.57
2023-01-09T18:25:11.652Z,3.56
2023-01-09T18:26:45.029Z,3.56
2023-01-09T18:28:18.736Z,3.55
2023-01-09T18:29:53.646Z,3.56
2023-01-09T18:31:28.363Z,3.54
2023-01-09T18:33:02.125Z,3.46
2023-01-09T18:34:35.566Z,3.52
2023-01-09T18:36:11.035Z,3.54
2023-01-09T18:37:44.318Z,3.48
2023-01-09T18:39:18.011Z,3.46
2023-01-09T18:40:51.220Z,3.44
2023-01-09T18:42:24.455Z,3.46
2023-01-09T18:43:59.378Z,3.45
2023-01-09T18:45:34.627Z,3.48
2023-01-09T18:47:07.831Z,3.47
2023-01-09T18:48:41.100Z,3.47
2023-01-09T18:50:14.631Z,3.48
2023-01-09T18:51:48.354Z,3.48
2023-01-09T18:53:21.631Z,3.46
2023-01-09T18:54:54.992Z,3.50
2023-01-09T18:56:28.428Z,3.52
2023-01-09T18:58:02.818Z,3.53
2023-01-09T18:59:36.064Z,3.52
2023-01-09T19:01:10.685Z,3.51
2023-01-09T19:02:43.907Z,3.44
2023-01-09T19:04:17.323Z,3.42
2023-01-09T19:05:50.519Z,3.37
2023-01-09T19:07:23.735Z,3.39
2023-01-09T19:08:57.126Z,3.35
2023-01-09T19:10:30.770Z,3.29
2023-01-09T19:12:04.007Z,3.24
2023-01-09T19:13:38.476Z,3.17
2023-01-09T19:15:13.079Z,3.14
2023-01-09T19:16:48.033Z,3.07
2023-01-09T19:18:21.336Z,2.99
2023-01-09T19:19:54.462Z,2.91
2023-01-09T19:21:27.919Z,2.85
2023-01-09T19:23:01.661Z,2.83
2023-01-09T19:24:34.895Z,2.76
2023-01-09T19:26:09.453Z,2.73
2023-01-09T19:27:42.589Z,2.71
2023-01-09T19:29:18.389Z,2.64
2023-01-09T19:30:56.331Z,2.56
2023-01-09T19:32:31.033Z,2.61
2023-01-09T19:34:04.247Z,2.60
2023-01-09T19:35:38.067Z,2.65
2023-01-09T19:37:11.419Z,2.69
2023-01-09T19:38:44.942Z,2.66
2023-01-09T19:40:18.716Z,2.62
2023-01-09T19:41:52.792Z,2.63
2023-01-09T19:43:29.048Z,2.66
2023-01-09T19:45:02.496Z,2.68
2023-01-09T19:46:36.825Z,2.67
2023-01-09T19:48:12.128Z,2.62
2023-01-09T19:49:45.459Z,2.70
2023-01-09T19:51:20.914Z,2.72
2023-01-09T19:52:54.559Z,2.76
2023-01-09T19:54:29.542Z,2.77
2023-01-09T19:56:10.823Z,2.76
2023-01-09T19:57:45.295Z,2.62
2023-01-09T19:59:18.872Z,2.54
2023-01-09T20:00:52.350Z,2.56
2023-01-09T20:02:25.626Z,2.57
2023-01-09T20:04:03.396Z,2.58
2023-01-09T20:05:36.963Z,2.60
2023-01-09T20:07:10.304Z,2.62
2023-01-09T20:08:45.080Z,2.55
2023-01-09T20:10:18.569Z,2.49
2023-01-09T20:11:51.748Z,2.48
2023-01-09T20:13:25.439Z,2.51
2023-01-09T20:14:58.857Z,2.51
2023-01-09T20:16:32.232Z,2.55
2023-01-09T20:18:07.820Z,2.56
2023-01-09T20:19:44.514Z,2.54
2023-01-09T20:22:56.125Z,2.35
2023-01-09T20:24:29.485Z,2.31
2023-01-09T20:26:03.826Z,2.28
2023-01-09T20:27:37.048Z,2.31
2023-01-09T20:29:10.329Z,2.36
2023-01-09T20:30:43.848Z,2.29
2023-01-09T20:32:17.028Z,2.35
2023-01-09T20:33:51.936Z,2.50
2023-01-09T20:35:26.889Z,2.54
2023-01-09T20:37:00.137Z,2.58
2023-01-09T20:38:34.320Z,2.59
2023-01-09T20:40:08.417Z,2.66
2023-01-09T20:41:42.044Z,2.75
2023-01-09T20:43:15.203Z,2.84
2023-01-09T20:44:48.918Z,2.86
2023-01-09T20:46:23.291Z,2.88
2023-01-09T20:47:56.772Z,2.83
2023-01-09T20:49:29.964Z,2.79
2023-01-09T20:51:09.420Z,2.77
2023-01-09T20:52:42.628Z,2.75
2023-01-09T20:54:16.617Z,2.66
2023-01-09T20:55:49.750Z,2.60
2023-01-09T20:57:23.199Z,2.47
2023-01-09T20:58:56.564Z,2.41
2023-01-09T21:00:32.125Z,2.49
2023-01-09T21:02:05.508Z,2.55
2023-01-09T21:03:39.097Z,2.53
2023-01-09T21:05:12.251Z,2.55
2023-01-09T21:06:49.082Z,2.53
2023-01-09T21:08:23.026Z,2.42
2023-01-09T21:09:56.981Z,2.47
2023-01-09T21:11:30.095Z,2.55
2023-01-09T21:13:03.393Z,2.58
2023-01-09T21:14:38.964Z,2.65
2023-01-09T21:16:15.223Z,2.63